Time;durP1;ratioP1;P1;durP2;ratioP2;P2;SDS_P1;SDS_P2;PMS_P1;PMS_P2;Temp;Humidity;BMP_temperature;BMP_pressure;BME280_temperature;BME280_humidity;BME280_pressure;Samples;Min_cycle;Max_cycle;Signal;HPM_P1;HPM_P2
2021/03/12 04:32:41;;;;;;;3.23;1.80;;;;;;;10.12;43.16;98406.53;7259666;23;20316;-83
2021/03/12 04:36:02;;;;;;;5.63;1.70;;;;;;;10.06;43.07;98426.22;6869871;28;20221;-83
2021/03/12 04:39:24;;;;;;;10.30;2.30;;;;;;;10.22;42.60;98414.16;6874766;28;20224;-83
2021/03/12 04:42:46;;;;;;;2.07;1.87;;;;;;;10.43;42.30;98433.56;6873620;28;20225;-82
2021/03/12 04:46:07;;;;;;;3.57;1.90;;;;;;;10.32;41.95;98425.28;6873886;28;20594;-83
2021/03/12 04:49:30;;;;;;;2.07;1.90;;;;;;;10.05;42.26;98450.66;6874423;28;20200;-81
2021/03/12 04:52:54;;;;;;;5.27;2.17;;;;;;;10.20;41.27;98437.78;6874025;28;20236;-82
2021/03/12 04:56:15;;;;;;;6.20;2.13;;;;;;;10.25;41.96;98433.41;6872994;28;20209;-82
2021/03/12 04:59:36;;;;;;;3.60;2.00;;;;;;;10.12;42.15;98448.78;6873415;28;20213;-82
2021/03/12 05:02:58;;;;;;;3.60;2.10;;;;;;;10.43;41.85;98449.72;6873315;28;20721;-82
2021/03/12 05:06:20;;;;;;;6.37;1.90;;;;;;;10.90;41.86;98460.09;6871697;28;20213;-83
2021/03/12 05:09:41;;;;;;;2.77;1.70;;;;;;;11.03;41.74;98449.22;6872875;28;20678;-82
2021/03/12 05:13:04;;;;;;;2.70;1.80;;;;;;;10.62;41.66;98461.50;6870777;28;20228;-82
2021/03/12 05:16:25;;;;;;;3.70;2.30;;;;;;;10.62;41.91;98451.53;6869981;28;20245;-83
2021/03/12 05:19:46;;;;;;;4.03;2.13;;;;;;;10.61;41.51;98425.59;6869177;28;20206;-82
2021/03/12 05:23:08;;;;;;;2.90;1.70;;;;;;;10.73;40.33;98452.72;6869913;28;20257;-82
2021/03/12 05:26:29;;;;;;;7.60;2.00;;;;;;;10.40;41.37;98430.47;6870615;28;20213;-81
2021/03/12 05:29:50;;;;;;;3.37;1.70;;;;;;;10.12;41.94;98438.00;6873263;28;20231;-82
2021/03/12 05:33:13;;;;;;;4.53;2.10;;;;;;;10.48;41.79;98441.00;6873370;28;20241;-82
2021/03/12 05:36:38;;;;;;;5.03;2.53;;;;;;;10.62;41.05;98423.75;6874044;28;20209;-82
2021/03/12 05:40:00;;;;;;;2.73;1.90;;;;;;;10.57;41.17;98445.94;6874145;28;20220;-82
2021/03/12 05:43:22;;;;;;;7.33;3.50;;;;;;;10.70;41.61;98428.88;6874069;28;20225;-82
2021/03/12 05:46:43;;;;;;;5.40;2.40;;;;;;;10.74;41.85;98446.31;6873058;28;20216;-82
2021/03/12 05:50:06;;;;;;;2.63;1.70;;;;;;;10.78;42.43;98439.41;6872766;28;20255;-82
2021/03/12 05:53:28;;;;;;;4.60;2.13;;;;;;;10.55;42.30;98388.72;6873158;28;20225;-83
2021/03/12 05:56:50;;;;;;;6.17;2.47;;;;;;;10.85;43.11;98411.38;6872570;28;20205;-83
2021/03/12 06:00:12;;;;;;;3.63;2.50;;;;;;;11.35;42.65;98447.38;6873032;28;20226;-82
2021/03/12 06:03:33;;;;;;;6.07;2.40;;;;;;;11.36;43.10;98447.16;6872049;28;20213;-82
2021/03/12 06:06:55;;;;;;;4.80;2.53;;;;;;;11.16;43.14;98434.84;6876258;28;20216;-82
2021/03/12 06:10:17;;;;;;;5.03;2.70;;;;;;;11.15;43.64;98441.28;6872414;28;20236;-82
2021/03/12 06:13:52;;;;;;;8.43;3.57;;;;;;;10.81;43.90;98449.78;6872381;28;20219;-82
2021/03/12 06:17:30;;;;;;;7.30;2.20;;;;;;;10.90;42.66;98467.34;6870511;28;20217;-82
2021/03/12 06:20:52;;;;;;;3.77;2.37;;;;;;;10.97;42.78;98470.84;6872089;28;20221;-81
2021/03/12 06:24:27;;;;;;;3.10;2.13;;;;;;;10.80;42.79;98453.53;6872775;28;20635;-82
2021/03/12 06:27:49;;;;;;;9.57;3.70;;;;;;;10.99;42.44;98466.88;6871691;28;20205;-83
2021/03/12 06:31:27;;;;;;;5.83;2.83;;;;;;;11.30;41.48;98429.16;6870076;28;20259;-82
2021/03/12 06:34:59;;;;;;;4.60;2.50;;;;;;;11.43;41.38;98463.28;6866503;28;20194;-81
2021/03/12 06:38:21;;;;;;;6.63;2.67;;;;;;;11.22;41.12;98453.69;6874160;28;20236;-80
2021/03/12 06:41:44;;;;;;;6.50;2.70;;;;;;;11.26;41.75;98483.75;6877094;28;20229;-81
2021/03/12 06:45:06;;;;;;;5.27;2.80;;;;;;;10.95;42.81;98486.41;6876700;28;20209;-81
2021/03/12 06:48:30;;;;;;;4.13;2.33;;;;;;;10.93;42.96;98510.09;6876777;28;20303;-81
2021/03/12 06:51:55;;;;;;;6.60;3.17;;;;;;;11.18;42.96;98490.25;6877687;28;20236;-80
2021/03/12 06:55:17;;;;;;;5.20;2.63;;;;;;;11.21;42.68;98503.28;6875829;28;20658;-81
2021/03/12 06:58:38;;;;;;;9.20;3.97;;;;;;;11.74;42.04;98509.22;6876278;28;20208;-81
2021/03/12 07:02:00;;;;;;;4.23;2.20;;;;;;;11.50;41.91;98434.38;6875136;28;20242;-81
2021/03/12 07:05:22;;;;;;;5.20;3.10;;;;;;;12.20;41.21;98520.44;6876014;28;20206;-81
2021/03/12 07:08:45;;;;;;;5.97;3.17;;;;;;;11.63;42.50;98524.22;6876528;28;20212;-80
2021/03/12 07:12:06;;;;;;;5.33;2.27;;;;;;;11.24;43.15;98545.22;6875391;28;20229;-81
2021/03/12 07:15:28;;;;;;;3.57;1.97;;;;;;;11.78;42.58;98542.81;6875110;28;20205;-80
2021/03/12 07:18:50;;;;;;;3.80;1.93;;;;;;;11.25;43.83;98542.31;6876118;28;20212;-80
2021/03/12 07:22:12;;;;;;;5.73;2.30;;;;;;;11.16;44.39;98513.91;6875918;28;20689;-81
2021/03/12 07:25:34;;;;;;;4.30;1.90;;;;;;;11.69;43.55;98527.94;6874898;28;20206;-80
2021/03/12 07:29:00;;;;;;;4.27;2.00;;;;;;;11.32;44.86;98547.66;6874437;28;20205;-81
2021/03/12 07:32:24;;;;;;;3.27;1.80;;;;;;;11.62;44.57;98557.69;6872281;28;20255;-81
2021/03/12 07:35:46;;;;;;;3.90;2.47;;;;;;;11.36;45.61;98562.38;6873668;28;20213;-81
2021/03/12 07:39:09;;;;;;;4.90;2.10;;;;;;;11.90;44.44;98558.13;6873755;28;20293;-80
2021/03/12 07:42:32;;;;;;;3.10;2.07;;;;;;;11.56;45.26;98560.41;6874971;28;20236;-81
2021/03/12 07:45:53;;;;;;;5.30;1.80;;;;;;;11.83;44.19;98530.34;6874042;28;20257;-81
2021/03/12 07:49:36;;;;;;;3.70;2.37;;;;;;;12.04;44.31;98564.25;6873849;28;20729;-79
2021/03/12 07:52:58;;;;;;;3.73;1.80;;;;;;;12.13;43.23;98541.28;6873708;28;20229;-81
2021/03/12 07:56:52;;;;;;;4.13;1.90;;;;;;;11.77;44.87;98566.31;6874553;28;20293;-81
2021/03/12 08:00:15;;;;;;;5.10;2.00;;;;;;;11.11;46.85;98575.78;6874018;28;20283;-81
2021/03/12 08:03:39;;;;;;;2.63;1.63;;;;;;;11.28;45.97;98565.34;6874122;28;20209;-81
2021/03/12 08:07:33;;;;;;;3.13;2.83;;;;;;;11.21;48.03;98572.66;6874911;28;20213;-83
2021/03/12 08:11:20;;;;;;;5.10;2.10;;;;;;;11.14;47.67;98602.34;6875391;28;20237;-82
2021/03/12 08:14:42;;;;;;;3.13;1.60;;;;;;;11.03;48.78;98599.50;6876351;28;20213;-83
2021/03/12 08:18:25;;;;;;;4.03;1.90;;;;;;;11.20;49.04;98590.69;6862216;28;20290;-80
2021/03/12 08:21:46;;;;;;;2.47;1.90;;;;;;;11.41;49.17;98597.66;6853812;28;20217;-81
2021/03/12 08:25:08;;;;;;;3.53;2.23;;;;;;;11.62;48.78;98598.19;6874172;28;20213;-81
2021/03/12 08:28:34;;;;;;;2.67;2.03;;;;;;;11.41;48.92;98594.97;6874306;28;20597;-81
2021/03/12 08:31:55;;;;;;;3.67;2.10;;;;;;;11.76;48.10;98583.56;6870558;28;20245;-80
2021/03/12 08:35:38;;;;;;;3.53;2.30;;;;;;;12.03;47.52;98587.72;6856511;28;20563;-80
2021/03/12 08:39:00;;;;;;;5.50;2.03;;;;;;;11.90;47.40;98585.13;6837785;28;20232;-80
2021/03/12 08:42:54;;;;;;;4.70;2.67;;;;;;;12.80;46.17;98571.03;6845471;28;20229;-81
2021/03/12 08:46:21;;;;;;;3.30;2.20;;;;;;;12.82;44.77;98564.34;6845659;29;20214;-81
2021/03/12 08:49:43;;;;;;;7.70;4.33;;;;;;;13.43;43.75;98570.47;6846212;28;20190;-80
2021/03/12 08:53:05;;;;;;;2.43;1.70;;;;;;;13.60;42.26;98560.66;6849825;28;20644;-81
2021/03/12 08:56:29;;;;;;;3.47;2.03;;;;;;;13.49;41.54;98563.28;6844754;29;20239;-81
2021/03/12 09:00:03;;;;;;;4.30;2.13;;;;;;;14.11;40.49;98546.53;6845862;29;20219;-81
2021/03/12 09:03:27;;;;;;;2.67;1.90;;;;;;;13.80;41.30;98573.91;6845771;28;20236;-82
2021/03/12 09:06:48;;;;;;;4.77;2.13;;;;;;;12.66;41.73;98545.13;6844538;29;20211;-81
2021/03/12 09:10:24;;;;;;;3.77;1.93;;;;;;;12.63;42.85;98556.44;6845818;28;20241;-81
2021/03/12 09:13:46;;;;;;;1.93;1.70;;;;;;;12.48;44.49;98564.06;6844644;29;20694;-81
2021/03/12 09:17:07;;;;;;;3.03;1.90;;;;;;;12.43;43.30;98548.50;6844641;29;20293;-81
2021/03/12 09:20:29;;;;;;;2.37;2.10;;;;;;;13.18;43.15;98549.97;6844886;28;20241;-81
2021/03/12 09:23:52;;;;;;;3.20;1.70;;;;;;;12.94;41.88;98545.47;6843554;28;20215;-81
2021/03/12 09:27:19;;;;;;;2.50;2.07;;;;;;;13.96;39.88;98541.53;6842970;29;20259;-81
2021/03/12 09:30:42;;;;;;;2.03;1.80;;;;;;;13.02;40.53;98532.47;6842457;28;20233;-82
2021/03/12 09:34:05;;;;;;;2.97;2.10;;;;;;;13.54;39.51;98531.78;6843246;29;20206;-81
2021/03/12 09:37:41;;;;;;;3.90;2.53;;;;;;;13.21;38.67;98517.06;6844118;29;20258;-81
2021/03/12 09:41:16;;;;;;;3.70;2.10;;;;;;;13.34;37.99;98530.41;6844963;28;20231;-81
2021/03/12 09:44:38;;;;;;;4.30;1.90;;;;;;;12.90;38.63;98517.19;6845282;29;20202;-81
2021/03/12 09:48:00;;;;;;;2.93;1.80;;;;;;;12.90;38.55;98534.25;6844784;28;20209;-82
2021/03/12 09:51:22;;;;;;;3.10;2.07;;;;;;;13.06;38.79;98527.44;6845346;28;20650;-81
2021/03/12 09:54:45;;;;;;;4.17;1.77;;;;;;;13.12;39.06;98529.22;6845582;29;20202;-81
2021/03/12 09:58:10;;;;;;;7.87;2.23;;;;;;;13.51;38.53;98547.66;6845717;29;20216;-81
2021/03/12 10:01:36;;;;;;;5.40;2.73;;;;;;;13.20;38.98;98539.72;6845312;28;20314;-81
2021/03/12 10:05:00;;;;;;;1.57;1.40;;;;;;;13.59;38.46;98529.22;6844133;29;20401;-80
2021/03/12 10:08:21;;;;;;;3.63;1.60;;;;;;;13.78;38.58;98513.69;6844560;29;20252;-79
2021/03/12 10:11:45;;;;;;;2.33;1.80;;;;;;;14.68;37.05;98527.56;6844363;28;20236;-82
2021/03/12 10:15:10;;;;;;;4.27;1.87;;;;;;;14.05;37.99;98520.34;6848104;28;20218;-81
2021/03/12 10:18:31;;;;;;;2.50;1.90;;;;;;;14.20;38.45;98537.84;6849324;29;20212;-81
2021/03/12 10:21:52;;;;;;;4.40;1.90;;;;;;;14.20;37.67;98537.00;6849470;28;20238;-81
2021/03/12 10:25:15;;;;;;;3.20;2.20;;;;;;;13.54;37.46;98520.09;6848766;29;20220;-81
2021/03/12 10:28:37;;;;;;;3.90;2.30;;;;;;;13.07;39.49;98513.69;6850394;28;20401;-81
2021/03/12 10:32:08;;;;;;;1.90;1.60;;;;;;;12.82;41.40;98496.69;6849118;28;20286;-81
2021/03/12 10:35:30;;;;;;;5.47;2.10;;;;;;;13.67;40.98;98515.31;6850084;29;20203;-80
2021/03/12 10:38:52;;;;;;;6.00;2.00;;;;;;;14.02;40.81;98509.97;6848455;29;20231;-81
2021/03/12 10:42:13;;;;;;;4.43;1.93;;;;;;;13.49;41.54;98518.09;6849167;28;20237;-81
2021/03/12 10:45:35;;;;;;;2.93;1.73;;;;;;;14.09;40.52;98530.47;6849846;28;20219;-80
2021/03/12 10:48:57;;;;;;;1.80;1.50;;;;;;;13.65;38.21;98508.47;6848587;29;20279;-81
2021/03/12 10:52:22;;;;;;;1.23;1.17;;;;;;;14.12;38.68;98521.06;6849136;28;20579;-80
2021/03/12 10:55:45;;;;;;;2.73;1.83;;;;;;;14.72;39.28;98498.06;6848144;29;20239;-80
2021/03/12 10:59:07;;;;;;;5.67;1.77;;;;;;;15.07;38.09;98502.34;6848136;29;20209;-80
2021/03/12 11:02:34;;;;;;;3.50;1.60;;;;;;;14.73;39.34;98511.41;6848763;28;20249;-80
2021/03/12 11:05:55;;;;;;;2.53;1.43;;;;;;;14.93;38.15;98503.69;6849399;29;20225;-80
2021/03/12 11:09:18;;;;;;;2.23;1.60;;;;;;;14.45;39.21;98500.47;6858901;28;20201;-80
2021/03/12 11:12:42;;;;;;;1.80;1.70;;;;;;;15.03;37.63;98508.50;6875172;28;20247;-80
2021/03/12 11:16:04;;;;;;;4.07;1.63;;;;;;;14.46;38.20;98514.84;6870520;28;20233;-80
2021/03/12 11:19:26;;;;;;;1.50;1.40;;;;;;;14.68;38.58;98511.28;6875866;28;20674;-80
2021/03/12 11:22:48;;;;;;;2.10;1.27;;;;;;;14.85;37.46;98504.06;6875659;28;20230;-81
2021/03/12 11:26:10;;;;;;;1.83;1.60;;;;;;;14.79;37.88;98493.31;6875639;28;20210;-80
2021/03/12 11:29:32;;;;;;;2.17;1.33;;;;;;;14.91;36.68;98491.41;6876620;28;20264;-81
2021/03/12 11:32:55;;;;;;;1.10;1.10;;;;;;;15.66;34.98;98479.31;6874339;28;20236;-81
2021/03/12 11:36:17;;;;;;;2.20;1.40;;;;;;;15.74;33.93;98473.50;6875187;28;20197;-81
2021/03/12 11:39:39;;;;;;;1.90;1.70;;;;;;;14.62;34.08;98470.72;6875026;28;20216;-80
2021/03/12 11:43:00;;;;;;;1.67;1.37;;;;;;;14.45;34.67;98469.81;6875988;28;20233;-80
2021/03/12 11:46:21;;;;;;;2.87;1.53;;;;;;;15.87;33.96;98452.22;6875174;28;20216;-81
2021/03/12 11:49:45;;;;;;;1.93;1.50;;;;;;;16.79;31.52;98443.28;6876237;28;20221;-80
2021/03/12 11:53:07;;;;;;;1.60;1.50;;;;;;;15.93;31.79;98415.91;6875006;28;20245;-79
2021/03/12 11:56:28;;;;;;;3.53;1.50;;;;;;;16.71;31.05;98432.00;6874913;28;20212;-79
2021/03/12 11:59:50;;;;;;;3.33;1.70;;;;;;;15.79;31.84;98435.50;6874878;28;20220;-78
2021/03/12 12:03:11;;;;;;;1.93;1.50;;;;;;;16.11;31.40;98423.78;6875149;28;20240;-78
2021/03/12 12:06:33;;;;;;;1.77;1.30;;;;;;;15.26;31.44;98407.91;6875830;28;20209;-79
2021/03/12 12:09:55;;;;;;;1.93;1.40;;;;;;;15.30;32.20;98417.25;6875556;28;20205;-79
2021/03/12 12:13:16;;;;;;;3.33;1.33;;;;;;;15.66;31.94;98420.38;6875258;28;20228;-78
2021/03/12 12:16:37;;;;;;;3.37;1.50;;;;;;;15.66;31.58;98411.38;6875140;28;20213;-78
2021/03/12 12:19:59;;;;;;;3.57;2.00;;;;;;;15.62;33.28;98405.63;6875128;28;20206;-78
2021/03/12 12:23:20;;;;;;;5.83;2.10;;;;;;;15.41;35.68;98419.09;6876083;28;20232;-79
2021/03/12 12:26:42;;;;;;;2.23;1.53;;;;;;;15.30;36.13;98401.78;6874993;28;20631;-79
2021/03/12 12:30:04;;;;;;;2.83;1.43;;;;;;;15.43;35.65;98392.50;6875887;28;20260;-78
2021/03/12 12:33:25;;;;;;;2.20;1.70;;;;;;;16.23;34.12;98380.19;6876105;28;20237;-79
2021/03/12 12:36:46;;;;;;;4.47;1.60;;;;;;;16.00;35.39;98366.78;6875083;28;20232;-79
2021/03/12 12:40:09;;;;;;;3.17;1.87;;;;;;;15.65;37.59;98368.97;6875860;28;20584;-79
2021/03/12 12:43:31;;;;;;;2.80;2.60;;;;;;;16.06;34.80;98366.63;6875445;28;20228;-79
2021/03/12 12:46:52;;;;;;;4.70;2.07;;;;;;;16.02;34.03;98381.78;6875065;28;20233;-79
2021/03/12 12:50:14;;;;;;;3.40;1.70;;;;;;;15.34;33.96;98392.09;6875304;28;20209;-79
2021/03/12 12:53:36;;;;;;;2.03;1.53;;;;;;;15.64;32.83;98378.19;6874398;28;20224;-78
2021/03/12 12:56:57;;;;;;;2.93;1.70;;;;;;;15.02;33.76;98379.25;6875039;28;20213;-79
2021/03/12 13:00:21;;;;;;;3.27;1.87;;;;;;;15.45;35.22;98379.53;6873644;28;20205;-79
2021/03/12 13:03:42;;;;;;;1.53;1.40;;;;;;;14.78;36.97;98386.69;6874144;28;20205;-78
2021/03/12 13:07:04;;;;;;;1.80;1.60;;;;;;;14.76;37.57;98377.13;6873854;28;20205;-78
2021/03/12 13:10:25;;;;;;;2.73;1.83;;;;;;;14.87;37.44;98371.63;6873535;28;20209;-78
2021/03/12 13:13:46;;;;;;;1.60;1.50;;;;;;;15.04;36.77;98371.69;6874173;28;20323;-78
2021/03/12 13:17:08;;;;;;;4.47;2.93;;;;;;;15.30;34.88;98374.63;6871282;28;20213;-79
2021/03/12 13:20:30;;;;;;;4.40;1.43;;;;;;;14.90;32.37;98359.47;6873954;28;20216;-81
2021/03/12 13:23:52;;;;;;;4.30;2.97;;;;;;;15.16;32.44;98372.47;6876712;28;20213;-80
2021/03/12 13:27:13;;;;;;;2.67;1.80;;;;;;;14.96;32.61;98353.91;6868329;28;20210;-80
2021/03/12 13:30:34;;;;;;;3.47;2.27;;;;;;;15.55;32.17;98364.19;6871701;28;20244;-79
2021/03/12 13:33:56;;;;;;;3.70;1.93;;;;;;;14.73;31.92;98358.59;6871928;28;20258;-79
2021/03/12 13:37:17;;;;;;;1.97;1.60;;;;;;;14.60;32.83;98343.44;6871968;28;20284;-80
2021/03/12 13:40:39;;;;;;;2.30;1.50;;;;;;;15.53;31.26;98343.78;6870994;28;20593;-79
2021/03/12 13:44:00;;;;;;;3.37;2.33;;;;;;;15.56;30.20;98363.13;6872068;28;20575;-79
2021/03/12 13:47:21;;;;;;;3.80;1.90;;;;;;;15.34;30.18;98351.34;6871845;28;20202;-80
2021/03/12 13:50:43;;;;;;;2.63;1.53;;;;;;;15.43;30.29;98344.44;6871765;28;20239;-80
2021/03/12 13:54:05;;;;;;;3.23;1.83;;;;;;;15.94;29.40;98335.16;6870717;28;20213;-80
2021/03/12 13:57:26;;;;;;;3.13;1.70;;;;;;;15.60;30.24;98334.41;6871406;28;20653;-80
2021/03/12 14:00:47;;;;;;;2.63;1.80;;;;;;;15.87;29.68;98334.53;6871696;28;20239;-80
2021/03/12 14:04:09;;;;;;;2.03;1.50;;;;;;;15.46;30.33;98321.41;6871214;28;20209;-79
2021/03/12 14:07:31;;;;;;;2.30;1.80;;;;;;;15.37;30.02;98301.97;6870811;28;20220;-80
2021/03/12 14:10:52;;;;;;;1.77;1.50;;;;;;;15.74;29.78;98308.50;6872218;28;20239;-79
2021/03/12 14:14:15;;;;;;;3.97;1.80;;;;;;;16.51;28.66;98310.09;6872204;28;20227;-80
2021/03/12 14:17:36;;;;;;;2.43;1.73;;;;;;;15.92;29.17;98316.38;6872255;28;20220;-79
2021/03/12 14:20:57;;;;;;;3.37;1.80;;;;;;;16.38;28.62;98296.88;6872793;28;20595;-80
2021/03/12 14:24:19;;;;;;;4.77;1.90;;;;;;;15.99;28.79;98291.72;6872178;28;20216;-80
2021/03/12 14:27:55;;;;;;;1.67;1.47;;;;;;;15.97;28.89;98289.25;6872659;28;20221;-79
2021/03/12 14:31:17;;;;;;;3.73;1.87;;;;;;;16.01;28.71;98295.84;6763743;29;20246;-80
2021/03/12 14:34:38;;;;;;;3.60;1.70;;;;;;;16.11;28.15;98279.63;6763337;29;20207;-80
2021/03/12 14:37:59;;;;;;;3.27;1.77;;;;;;;15.78;29.17;98276.22;6763790;29;20673;-79
2021/03/12 14:41:21;;;;;;;3.13;2.10;;;;;;;15.44;29.01;98266.47;6764117;29;20332;-79
2021/03/12 14:44:42;;;;;;;3.67;2.03;;;;;;;15.41;29.32;98264.25;6763455;29;20669;-80
2021/03/12 14:48:04;;;;;;;2.93;1.90;;;;;;;15.72;29.57;98282.66;6762183;29;20208;-79
2021/03/12 14:51:27;;;;;;;3.27;1.70;;;;;;;15.56;30.01;98265.31;6765377;29;20265;-79
2021/03/12 14:54:48;;;;;;;2.40;1.80;;;;;;;15.32;29.66;98253.00;6764823;29;20204;-79
2021/03/12 14:58:10;;;;;;;1.93;1.43;;;;;;;15.26;29.73;98255.81;6769031;29;20222;-79
2021/03/12 15:01:31;;;;;;;4.50;1.97;;;;;;;15.17;29.95;98274.44;6766045;29;20318;-79
2021/03/12 15:04:53;;;;;;;3.80;1.70;;;;;;;14.55;30.75;98277.41;6767167;29;20315;-80
2021/03/12 15:08:14;;;;;;;4.07;1.90;;;;;;;14.72;31.11;98276.38;6832116;28;20282;-80
2021/03/12 15:11:35;;;;;;;4.57;2.33;;;;;;;14.38;32.12;98274.66;6875954;28;20232;-79
2021/03/12 15:14:57;;;;;;;3.17;2.07;;;;;;;14.38;32.66;98242.09;6872831;28;20240;-79
2021/03/12 15:18:19;;;;;;;6.23;2.43;;;;;;;14.79;32.90;98279.75;6873084;28;20224;-79
2021/03/12 15:21:40;;;;;;;7.27;2.07;;;;;;;14.54;34.47;98273.88;6875671;28;20236;-79
2021/03/12 15:25:01;;;;;;;4.80;2.70;;;;;;;14.25;35.60;98255.13;6869922;28;20220;-80
2021/03/12 15:28:22;;;;;;;4.00;1.97;;;;;;;14.11;36.82;98273.53;6869325;28;20204;-79
2021/03/12 15:31:46;;;;;;;5.10;3.57;;;;;;;14.54;36.55;98267.63;6874243;28;20247;-79
2021/03/12 15:35:09;;;;;;;1.90;1.63;;;;;;;14.36;37.05;98249.66;6874812;28;20196;-79
2021/03/12 15:38:30;;;;;;;2.00;1.67;;;;;;;14.35;37.19;98256.16;6870811;28;20206;-80
2021/03/12 15:41:52;;;;;;;3.53;1.60;;;;;;;14.78;36.55;98237.41;6873065;28;20712;-80
2021/03/12 15:45:13;;;;;;;3.13;2.00;;;;;;;13.76;38.94;98237.56;6874120;28;20290;-79
2021/03/12 15:48:35;;;;;;;4.00;2.00;;;;;;;13.53;39.41;98244.91;6874246;28;20208;-79
2021/03/12 15:51:57;;;;;;;2.93;1.90;;;;;;;13.40;39.39;98237.84;6874097;28;20240;-79
2021/03/12 15:55:23;;;;;;;1.87;1.67;;;;;;;13.95;38.53;98224.66;6873268;28;20209;-79
2021/03/12 15:58:44;;;;;;;2.17;1.63;;;;;;;14.44;37.77;98229.44;6873756;28;20616;-79
2021/03/12 16:02:05;;;;;;;2.30;1.80;;;;;;;14.75;36.42;98210.75;6872964;28;20323;-79
2021/03/12 16:05:27;;;;;;;5.27;2.20;;;;;;;14.21;37.48;98224.16;6873919;28;20205;-79
2021/03/12 16:08:49;;;;;;;5.20;3.40;;;;;;;14.17;37.68;98228.38;6872786;28;20353;-80
2021/03/12 16:12:10;;;;;;;2.53;2.00;;;;;;;14.29;36.90;98185.78;6872609;28;20233;-79
2021/03/12 16:15:31;;;;;;;3.73;2.67;;;;;;;13.85;38.03;98186.53;6870483;28;20199;-80
2021/03/12 16:18:53;;;;;;;2.80;2.10;;;;;;;14.33;37.45;98206.75;6869463;28;20213;-79
2021/03/12 16:22:15;;;;;;;3.63;2.30;;;;;;;14.29;37.29;98221.03;6868935;28;20756;-79
2021/03/12 16:25:36;;;;;;;3.23;2.10;;;;;;;14.11;37.38;98207.66;6869167;28;20630;-79
2021/03/12 16:28:57;;;;;;;4.57;2.00;;;;;;;13.98;37.98;98205.22;6869808;28;20207;-79
2021/03/12 16:32:20;;;;;;;2.27;1.70;;;;;;;13.74;38.69;98196.34;6869839;28;20237;-80
2021/03/12 16:35:41;;;;;;;3.33;1.77;;;;;;;13.18;39.71;98198.91;6869086;28;20239;-80
2021/03/12 16:39:04;;;;;;;3.33;1.63;;;;;;;13.94;38.59;98191.34;6866284;28;20228;-80
2021/03/12 16:42:25;;;;;;;3.13;1.90;;;;;;;13.91;38.76;98196.41;6870614;28;20235;-79
2021/03/12 16:45:47;;;;;;;6.30;1.97;;;;;;;13.77;39.28;98201.28;6873849;28;20230;-79
2021/03/12 16:49:09;;;;;;;2.07;1.87;;;;;;;13.88;38.42;98150.81;6876201;28;20214;-79
2021/03/12 16:52:30;;;;;;;1.70;1.60;;;;;;;14.35;37.68;98174.81;6871288;28;20232;-80
2021/03/12 16:55:52;;;;;;;2.33;1.70;;;;;;;14.12;38.40;98188.44;6862622;28;20209;-78
2021/03/12 16:59:14;;;;;;;2.50;1.80;;;;;;;13.87;38.04;98128.31;6843464;28;20206;-78
2021/03/12 17:02:35;;;;;;;3.53;1.80;;;;;;;13.37;39.26;98195.00;6843602;28;20619;-80
2021/03/12 17:05:56;;;;;;;5.80;3.07;;;;;;;13.70;38.71;98153.72;6862860;28;20209;-79
2021/03/12 17:09:20;;;;;;;4.63;3.30;;;;;;;13.70;38.14;98157.22;6869129;28;20231;-78
2021/03/12 17:12:42;;;;;;;5.27;2.43;;;;;;;13.32;39.21;98199.47;6869061;28;20235;-78
2021/03/12 17:16:04;;;;;;;5.67;2.43;;;;;;;13.15;39.02;98155.25;6868185;28;20217;-79
2021/03/12 17:19:25;;;;;;;2.53;2.00;;;;;;;13.40;38.96;98199.13;6870485;28;20285;-79
2021/03/12 17:22:46;;;;;;;3.70;2.00;;;;;;;13.01;39.01;98138.44;6874934;28;20224;-79
2021/03/12 17:26:08;;;;;;;7.27;3.30;;;;;;;13.80;38.24;98191.88;6875844;28;20689;-79
2021/03/12 17:29:30;;;;;;;9.20;5.97;;;;;;;13.61;38.37;98195.78;6870844;28;20211;-78
2021/03/12 17:32:51;;;;;;;5.03;3.30;;;;;;;13.71;38.14;98204.97;6875307;28;20235;-78
2021/03/12 17:36:14;;;;;;;5.87;2.70;;;;;;;13.45;38.81;98193.81;6868242;28;20262;-78
2021/03/12 17:39:35;;;;;;;6.83;2.87;;;;;;;13.40;38.56;98191.81;6866155;28;20306;-81
2021/03/12 17:42:56;;;;;;;6.63;3.13;;;;;;;13.63;38.46;98204.50;6867014;28;20238;-80
2021/03/12 17:46:18;;;;;;;4.73;2.27;;;;;;;13.37;38.75;98213.97;6868708;28;20207;-79
2021/03/12 17:49:39;;;;;;;4.60;2.80;;;;;;;13.43;38.64;98190.50;6872441;28;20203;-80
2021/03/12 17:53:00;;;;;;;6.27;2.43;;;;;;;13.35;38.80;98209.84;6855418;28;20629;-80
2021/03/12 17:56:22;;;;;;;5.53;2.53;;;;;;;13.59;38.37;98192.50;6861467;28;20578;-79
2021/03/12 17:59:43;;;;;;;9.50;2.87;;;;;;;13.65;38.61;98192.38;6868076;28;20219;-82
2021/03/12 18:03:05;;;;;;;7.10;2.97;;;;;;;13.61;38.41;98180.34;6868946;28;20237;-80
2021/03/12 18:06:26;;;;;;;8.77;3.30;;;;;;;13.77;38.34;98192.31;6870316;28;20237;-80
2021/03/12 18:09:48;;;;;;;5.07;2.60;;;;;;;13.12;38.92;98169.25;6870361;28;20201;-81
2021/03/12 18:13:09;;;;;;;5.30;2.37;;;;;;;13.47;38.50;98183.56;6869586;28;20234;-80
2021/03/12 18:16:30;;;;;;;7.37;2.70;;;;;;;13.45;38.74;98207.38;6869017;28;20228;-80
2021/03/12 18:19:52;;;;;;;7.43;2.50;;;;;;;13.58;38.83;98207.09;6858539;28;20215;-80
2021/03/12 18:23:13;;;;;;;8.10;2.53;;;;;;;13.47;38.69;98207.94;6868387;28;20308;-79
2021/03/12 18:26:34;;;;;;;8.17;3.30;;;;;;;13.44;38.89;98197.56;6868298;28;20672;-80
2021/03/12 18:29:55;;;;;;;4.80;2.20;;;;;;;13.49;38.75;98203.94;6869102;28;20214;-79
2021/03/12 18:33:17;;;;;;;7.40;2.50;;;;;;;13.57;38.69;98197.34;6870788;28;20228;-81
2021/03/12 18:36:39;;;;;;;3.53;2.17;;;;;;;13.05;38.91;98166.66;6900843;28;20604;-79
2021/03/12 18:40:00;;;;;;;5.47;2.63;;;;;;;13.21;39.34;98194.91;6896247;28;20382;-80
2021/03/12 18:43:21;;;;;;;4.77;2.43;;;;;;;13.06;38.72;98145.84;6874592;28;20648;-80
2021/03/12 18:46:43;;;;;;;3.90;2.20;;;;;;;13.07;39.28;98186.19;6873991;28;20199;-81
2021/03/12 18:50:05;;;;;;;5.20;2.47;;;;;;;12.88;39.74;98178.41;6863478;28;20211;-85
2021/03/12 18:53:27;;;;;;;5.37;2.57;;;;;;;13.03;39.86;98166.06;6846754;28;20246;-79
2021/03/12 18:56:48;;;;;;;5.30;2.37;;;;;;;12.87;39.86;98164.03;6846987;28;20211;-79
2021/03/12 19:00:15;;;;;;;3.70;2.03;;;;;;;13.02;39.88;98166.31;6855760;28;20231;-80
2021/03/12 19:03:36;;;;;;;3.47;2.07;;;;;;;12.97;39.67;98174.31;6875135;28;20718;-80
2021/03/12 19:06:57;;;;;;;6.50;2.73;;;;;;;13.00;40.07;98171.13;6874225;28;20214;-81
2021/03/12 19:10:20;;;;;;;5.73;2.47;;;;;;;12.40;41.06;98166.94;6868780;28;20211;-81
2021/03/12 19:13:41;;;;;;;10.73;5.30;;;;;;;13.25;39.52;98148.19;6844780;28;20218;-81
2021/03/12 19:17:03;;;;;;;6.90;2.50;;;;;;;13.30;39.33;98164.53;6845225;28;20206;-80
2021/03/12 19:20:24;;;;;;;5.70;2.67;;;;;;;13.08;39.26;98147.25;6846158;28;20594;-81
2021/03/12 19:23:45;;;;;;;3.40;1.80;;;;;;;12.66;40.58;98158.38;6871681;28;20209;-82
2021/03/12 19:27:09;;;;;;;3.00;2.10;;;;;;;13.04;39.36;98140.66;6871752;28;20560;-81
2021/03/12 19:30:30;;;;;;;4.13;2.13;;;;;;;12.46;40.19;98134.38;6872503;28;20233;-81
2021/03/12 19:33:51;;;;;;;2.00;1.70;;;;;;;12.71;40.11;98151.22;6873085;28;20217;-82
2021/03/12 19:37:13;;;;;;;5.30;2.10;;;;;;;12.94;39.57;98128.75;6872580;28;20237;-81
2021/03/12 19:40:34;;;;;;;4.47;2.00;;;;;;;13.25;38.56;98141.94;6867773;28;20293;-81
2021/03/12 19:43:57;;;;;;;3.17;2.17;;;;;;;12.53;40.59;98147.78;6871193;28;20214;-81
2021/03/12 19:47:19;;;;;;;5.63;3.83;;;;;;;13.32;38.67;98143.44;6870919;28;20213;-80
2021/03/12 19:50:40;;;;;;;3.13;2.00;;;;;;;13.02;39.32;98141.94;6872162;28;20698;-81
2021/03/12 19:54:02;;;;;;;4.17;2.20;;;;;;;13.46;38.71;98149.44;6871786;28;20230;-81
2021/03/12 19:57:23;;;;;;;2.53;2.20;;;;;;;13.17;39.05;98147.72;6871645;28;20301;-81
2021/03/12 20:00:45;;;;;;;2.53;2.00;;;;;;;12.60;39.71;98065.50;6871769;28;20234;-81
2021/03/12 20:04:06;;;;;;;5.63;2.37;;;;;;;12.66;39.88;98147.56;6871973;28;20210;-81
2021/03/12 20:07:27;;;;;;;7.10;2.63;;;;;;;12.75;39.92;98121.84;6871135;28;20205;-81
2021/03/12 20:10:49;;;;;;;4.60;2.00;;;;;;;12.61;40.67;98161.78;6871061;28;20226;-81
2021/03/12 20:14:11;;;;;;;5.87;2.40;;;;;;;12.53;41.07;98158.59;6872232;28;20210;-80
2021/03/12 20:17:33;;;;;;;6.50;2.20;;;;;;;12.56;40.59;98137.34;6870408;28;20225;-81
2021/03/12 20:20:55;;;;;;;4.97;3.27;;;;;;;12.53;40.39;98132.41;6869976;28;20225;-81
2021/03/12 20:24:18;;;;;;;7.07;2.60;;;;;;;12.59;40.35;98120.66;6872575;28;20263;-83
2021/03/12 20:27:40;;;;;;;4.00;1.87;;;;;;;13.05;39.84;98130.66;6872655;28;20210;-80